createdAt,value
2023-04-11T00:00:28.974Z,2.42
2023-04-11T00:03:33.094Z,1.92
2023-04-11T00:06:36.912Z,2.20
2023-04-11T00:09:42.237Z,2.20
2023-04-11T00:12:49.975Z,1.90
2023-04-11T00:15:55.940Z,1.77
2023-04-11T00:19:01.806Z,2.22
2023-04-11T00:22:06.404Z,1.60
2023-04-11T00:25:12.567Z,1.92
2023-04-11T00:28:18.224Z,1.90
2023-04-11T00:31:21.882Z,1.95
2023-04-11T00:34:28.872Z,1.73
2023-04-11T00:37:36.531Z,2.10
2023-04-11T00:40:43.573Z,1.85
2023-04-11T00:43:51.597Z,2.72
2023-04-11T00:46:55.022Z,1.88
2023-04-11T00:49:59.196Z,1.77
2023-04-11T00:53:04.295Z,2.30
2023-04-11T00:56:11.322Z,1.98
2023-04-11T00:59:16.203Z,1.80
2023-04-11T01:02:27.452Z,2.35
2023-04-11T01:05:34.770Z,1.63
2023-04-11T01:08:39.688Z,1.95
2023-04-11T01:11:45.117Z,2.10
2023-04-11T01:14:49.385Z,2.00
2023-04-11T01:17:57.546Z,1.90
2023-04-11T01:21:01.208Z,1.90
2023-04-11T01:24:06.564Z,1.80
2023-04-11T01:27:11.532Z,1.92
2023-04-11T01:30:17.600Z,2.13
2023-04-11T01:33:21.283Z,1.95
2023-04-11T01:36:27.139Z,1.83
2023-04-11T01:39:32.474Z,1.80
2023-04-11T01:42:36.403Z,1.83
2023-04-11T01:45:41.781Z,1.83
2023-04-11T01:48:46.514Z,1.52
2023-04-11T01:51:50.671Z,2.13
2023-04-11T01:54:55.697Z,1.83
2023-04-11T01:57:59.264Z,1.52
2023-04-11T02:01:02.964Z,2.03
2023-04-11T02:04:11.995Z,1.90
2023-04-11T02:07:18.115Z,1.67
2023-04-11T02:10:29.805Z,1.80
2023-04-11T02:13:33.647Z,1.50
2023-04-11T02:16:51.018Z,1.98
2023-04-11T02:19:55.341Z,1.50
2023-04-11T02:22:59.250Z,1.92
2023-04-11T02:26:05.047Z,1.67
2023-04-11T02:29:09.250Z,1.52
2023-04-11T02:32:12.971Z,1.35
2023-04-11T02:35:16.814Z,1.50
2023-04-11T02:38:20.684Z,1.70
2023-04-11T02:41:25.913Z,1.60
2023-04-11T02:44:33.837Z,1.40
2023-04-11T02:47:38.152Z,1.20
2023-04-11T02:50:47.842Z,1.40
2023-04-11T02:53:52.113Z,1.23
2023-04-11T02:56:58.777Z,1.10
2023-04-11T03:00:03.557Z,1.05
2023-04-11T03:03:17.264Z,0.93
2023-04-11T03:06:23.778Z,0.70
2023-04-11T03:09:34.720Z,1.23
2023-04-11T03:12:40.142Z,1.15
2023-04-11T03:15:46.542Z,1.00
2023-04-11T03:18:52.610Z,1.10
2023-04-11T03:21:56.485Z,1.15
2023-04-11T03:25:00.384Z,1.27
2023-04-11T03:28:06.463Z,0.95
2023-04-11T03:31:11.823Z,1.20
2023-04-11T03:34:16.413Z,1.05
2023-04-11T03:37:20.102Z,1.10
2023-04-11T03:40:23.799Z,1.00
2023-04-11T03:43:37.628Z,1.05
2023-04-11T03:46:45.683Z,0.80
2023-04-11T03:49:50.469Z,1.02
2023-04-11T03:52:55.732Z,1.20
2023-04-11T03:55:59.445Z,0.82
2023-04-11T03:59:13.260Z,1.08
2023-04-11T04:02:29.507Z,0.80
2023-04-11T04:05:34.910Z,0.65
2023-04-11T04:08:39.226Z,0.77
2023-04-11T04:11:42.835Z,0.60
2023-04-11T04:14:48.393Z,0.70
2023-04-11T04:17:54.606Z,0.52
2023-04-11T04:21:21.927Z,0.60
2023-04-11T04:24:29.689Z,0.57
2023-04-11T04:27:57.961Z,0.47
2023-04-11T04:31:03.902Z,0.43
2023-04-11T04:34:24.334Z,0.60
2023-04-11T04:37:28.237Z,0.80
2023-04-11T04:40:43.547Z,0.68
2023-04-11T04:43:48.704Z,0.57
2023-04-11T04:47:06.872Z,0.40
2023-04-11T04:50:11.316Z,0.50
2023-04-11T04:53:15.492Z,0.65
2023-04-11T04:56:24.704Z,0.50
2023-04-11T04:59:34.384Z,0.60
2023-04-11T05:02:47.926Z,0.93
2023-04-11T05:05:52.829Z,0.50
2023-04-11T05:08:58.862Z,0.65
2023-04-11T05:12:02.481Z,0.57
2023-04-11T05:15:11.952Z,0.40
2023-04-11T05:18:20.846Z,0.70
2023-04-11T05:21:24.331Z,0.50
2023-04-11T05:24:29.341Z,0.50
2023-04-11T05:27:37.670Z,0.57
2023-04-11T05:30:43.053Z,0.60
2023-04-11T05:33:49.100Z,0.82
2023-04-11T05:36:53.062Z,0.57
2023-04-11T05:39:58.595Z,0.60
2023-04-11T05:43:02.466Z,0.60
2023-04-11T05:46:08.071Z,0.50
2023-04-11T05:49:13.128Z,0.63
2023-04-11T05:52:20.061Z,0.95
2023-04-11T05:55:25.075Z,1.08
2023-04-11T05:58:29.955Z,1.15
2023-04-11T06:01:34.607Z,0.38
2023-04-11T06:04:43.533Z,0.60
2023-04-11T06:07:49.179Z,0.70
2023-04-11T06:10:53.075Z,0.73
2023-04-11T06:13:56.781Z,0.77
2023-04-11T06:17:00.537Z,0.80
2023-04-11T06:20:08.411Z,0.65
2023-04-11T06:23:14.506Z,0.82
2023-04-11T06:26:20.789Z,0.73
2023-04-11T06:29:24.548Z,0.70
2023-04-11T06:32:28.312Z,0.77
2023-04-11T06:35:38.455Z,0.80
2023-04-11T06:38:45.936Z,0.60
2023-04-11T06:41:54.220Z,1.20
2023-04-11T06:45:08.175Z,0.80
2023-04-11T06:48:12.422Z,0.60
2023-04-11T06:51:18.206Z,0.98
2023-04-11T06:54:23.069Z,1.00
2023-04-11T06:57:29.085Z,0.93
2023-04-11T07:00:41.042Z,1.00
2023-04-11T07:03:47.328Z,0.85
2023-04-11T07:06:53.197Z,0.68
2023-04-11T07:09:56.610Z,0.90
2023-04-11T07:13:04.007Z,0.77
2023-04-11T07:16:10.368Z,0.80
2023-04-11T07:19:14.027Z,0.90
2023-04-11T07:22:19.289Z,0.80
2023-04-11T07:25:30.715Z,0.68
2023-04-11T07:28:39.844Z,1.00
2023-04-11T07:31:44.813Z,0.90
2023-04-11T07:34:48.327Z,0.70
2023-04-11T07:37:58.634Z,0.82
2023-04-11T07:41:06.515Z,0.93
2023-04-11T07:44:11.577Z,0.70
2023-04-11T07:47:17.823Z,0.80
2023-04-11T07:50:25.524Z,0.77
2023-04-11T07:53:32.588Z,0.50
2023-04-11T07:56:36.083Z,0.82
2023-04-11T07:59:40.174Z,0.70
2023-04-11T08:02:49.834Z,0.30
2023-04-11T08:05:53.887Z,0.30
2023-04-11T08:09:01.137Z,0.45
2023-04-11T08:12:07.003Z,0.57
2023-04-11T08:15:12.175Z,2.78
2023-04-11T08:18:21.636Z,0.80
2023-04-11T08:21:25.491Z,0.35
2023-04-11T08:24:30.657Z,0.30
2023-04-11T08:27:34.434Z,0.30
2023-04-11T08:30:37.934Z,0.40
2023-04-11T08:33:42.272Z,0.30
2023-04-11T08:36:45.668Z,0.40
2023-04-11T08:39:53.617Z,0.50
2023-04-11T08:43:00.986Z,0.55
2023-04-11T08:46:07.759Z,0.50
2023-04-11T08:49:25.310Z,0.47
2023-04-11T08:52:29.552Z,0.45
2023-04-11T08:55:34.510Z,0.40
2023-04-11T08:58:38.689Z,0.43
2023-04-11T09:01:43.289Z,0.40
2023-04-11T09:04:53.742Z,0.40
2023-04-11T09:07:58.928Z,0.47
2023-04-11T09:11:07.024Z,0.45
2023-04-11T09:14:11.843Z,0.50
2023-04-11T09:17:17.267Z,0.73
2023-04-11T09:20:21.593Z,0.70
2023-04-11T09:23:27.260Z,0.70
2023-04-11T09:26:33.471Z,0.80
2023-04-11T09:29:39.887Z,0.80
2023-04-11T09:32:43.187Z,0.98
2023-04-11T09:35:50.128Z,1.10
2023-04-11T09:38:55.875Z,1.30
2023-04-11T09:42:02.872Z,1.17
2023-04-11T09:45:08.608Z,1.55
2023-04-11T09:48:12.790Z,1.58
2023-04-11T09:51:27.638Z,1.73
2023-04-11T09:54:39.252Z,1.98
2023-04-11T09:57:51.692Z,2.20
2023-04-11T10:00:59.271Z,1.90
2023-04-11T10:04:05.344Z,1.58
2023-04-11T10:07:10.513Z,2.00
2023-04-11T10:10:19.847Z,2.13
2023-04-11T10:13:40.781Z,1.48
2023-04-11T10:17:02.476Z,1.70
2023-04-11T10:20:23.953Z,1.33
2023-04-11T10:23:27.885Z,1.10
2023-04-11T10:26:47.829Z,1.15
2023-04-11T10:29:53.586Z,1.13
2023-04-11T10:33:12.707Z,1.00
2023-04-11T10:36:16.099Z,1.08
2023-04-11T10:39:40.103Z,0.98
2023-04-11T10:42:45.321Z,1.00
2023-04-11T10:46:10.320Z,1.00
2023-04-11T10:49:14.084Z,1.10
2023-04-11T10:52:18.478Z,0.90
2023-04-11T10:55:22.116Z,0.55
2023-04-11T10:58:35.649Z,0.57
2023-04-11T11:04:46.527Z,1.00
2023-04-11T11:07:51.814Z,0.80
2023-04-11T11:11:01.929Z,0.82
2023-04-11T11:14:05.479Z,0.70
2023-04-11T11:17:11.425Z,0.45
2023-04-11T11:20:19.884Z,0.50
2023-04-11T11:23:26.334Z,0.43
2023-04-11T11:26:42.605Z,0.60
2023-04-11T11:29:49.981Z,0.40
2023-04-11T11:32:54.823Z,0.50
2023-04-11T11:35:59.369Z,0.73
2023-04-11T11:39:10.565Z,0.60
2023-04-11T11:42:15.355Z,0.60
2023-04-11T11:45:20.427Z,0.60
2023-04-11T11:48:28.557Z,0.75
2023-04-11T11:51:42.125Z,1.58
2023-04-11T11:54:46.983Z,1.27
2023-04-11T11:57:54.922Z,1.15
2023-04-11T12:01:02.296Z,2.33
2023-04-11T12:04:11.863Z,2.95
2023-04-11T12:07:15.921Z,2.55
2023-04-11T12:10:21.225Z,1.20
2023-04-11T12:13:29.994Z,0.70
2023-04-11T12:16:33.911Z,0.52
2023-04-11T12:19:40.018Z,0.68
2023-04-11T12:22:44.164Z,0.70
2023-04-11T12:25:48.072Z,0.77
2023-04-11T12:28:51.660Z,0.65
2023-04-11T12:31:58.808Z,0.65
2023-04-11T12:35:07.102Z,0.80
2023-04-11T12:38:13.288Z,0.68
2023-04-11T12:44:28.408Z,0.57
2023-04-11T12:47:33.419Z,0.65
2023-04-11T12:50:38.275Z,0.57
2023-04-11T12:53:41.723Z,0.52
2023-04-11T12:56:45.720Z,0.75
2023-04-11T12:59:49.622Z,0.68
2023-04-11T13:02:54.655Z,0.70
2023-04-11T13:06:01.246Z,0.50
2023-04-11T13:09:09.091Z,0.70
2023-04-11T13:12:12.443Z,0.85
2023-04-11T13:15:17.148Z,0.60
2023-04-11T13:18:21.163Z,2.80
2023-04-11T13:21:28.224Z,4.28
2023-04-11T13:24:33.053Z,12.45
2023-04-11T13:27:39.822Z,3.25
2023-04-11T13:30:44.059Z,4.50
2023-04-11T13:33:48.097Z,1.30
2023-04-11T13:36:58.525Z,1.10
2023-04-11T13:40:02.189Z,0.85
2023-04-11T13:43:06.530Z,0.88
2023-04-11T13:46:14.643Z,0.85
2023-04-11T13:49:21.385Z,0.52
2023-04-11T13:52:26.664Z,0.50
2023-04-11T13:55:30.367Z,0.80
2023-04-11T13:58:34.331Z,0.75
2023-04-11T14:01:39.826Z,0.80
2023-04-11T14:04:43.830Z,0.73
2023-04-11T14:07:50.412Z,1.02
2023-04-11T14:10:53.909Z,1.23
2023-04-11T14:13:57.852Z,0.70
2023-04-11T14:17:03.905Z,0.70
2023-04-11T14:20:09.159Z,0.95
2023-04-11T14:23:16.789Z,0.60
2023-04-11T14:26:20.973Z,0.60
2023-04-11T14:29:27.348Z,0.50
2023-04-11T14:32:31.731Z,0.90
2023-04-11T14:35:37.408Z,0.90
2023-04-11T14:38:43.413Z,0.60
2023-04-11T14:41:49.150Z,0.68
2023-04-11T14:44:53.960Z,0.70
2023-04-11T14:47:57.686Z,1.30
2023-04-11T14:51:05.012Z,0.52
2023-04-11T14:54:11.410Z,0.60
2023-04-11T14:57:14.981Z,0.57
2023-04-11T15:00:20.308Z,0.55
2023-04-11T15:03:29.987Z,0.90
2023-04-11T15:06:35.300Z,1.00
2023-04-11T15:09:43.208Z,0.60
2023-04-11T15:12:49.823Z,0.65
2023-04-11T15:15:57.676Z,0.60
2023-04-11T15:19:02.191Z,1.23
2023-04-11T15:22:05.592Z,0.80
2023-04-11T15:25:14.896Z,0.95
2023-04-11T15:28:20.591Z,1.00
2023-04-11T15:31:27.903Z,0.55
2023-04-11T15:34:41.647Z,1.33
2023-04-11T15:37:50.081Z,0.93
2023-04-11T15:40:59.361Z,0.75
2023-04-11T15:44:04.276Z,0.80
2023-04-11T15:47:08.536Z,0.82
2023-04-11T15:50:13.329Z,0.90
2023-04-11T15:53:21.116Z,0.88
2023-04-11T15:56:29.897Z,1.17
2023-04-11T15:59:33.863Z,1.20
2023-04-11T16:02:38.404Z,0.98
2023-04-11T16:05:44.990Z,0.80
2023-04-11T16:08:48.834Z,0.90
2023-04-11T16:12:07.216Z,0.60
2023-04-11T16:15:15.608Z,0.80
2023-04-11T16:18:22.869Z,0.70
2023-04-11T16:21:27.823Z,0.70
2023-04-11T16:24:32.365Z,0.70
2023-04-11T16:27:38.569Z,0.80
2023-04-11T16:30:46.271Z,0.75
2023-04-11T16:33:51.334Z,0.80
2023-04-11T16:36:55.861Z,0.80
2023-04-11T16:40:00.502Z,0.80
2023-04-11T16:43:07.075Z,0.70
2023-04-11T16:46:16.312Z,1.00
2023-04-11T16:49:20.265Z,1.02
2023-04-11T16:52:24.031Z,1.08
2023-04-11T16:55:27.957Z,1.20
2023-04-11T16:58:33.699Z,1.05
2023-04-11T17:01:38.749Z,0.95
2023-04-11T17:04:43.594Z,0.93
2023-04-11T17:07:48.642Z,1.00
2023-04-11T17:10:52.310Z,0.80
2023-04-11T17:13:56.387Z,0.85
2023-04-11T17:17:01.510Z,0.90
2023-04-11T17:20:09.298Z,0.73
2023-04-11T17:23:16.162Z,0.77
2023-04-11T17:26:20.321Z,0.80
2023-04-11T17:29:23.975Z,1.00
2023-04-11T17:32:29.029Z,0.80
2023-04-11T17:35:33.089Z,1.10
2023-04-11T17:38:36.645Z,1.15
2023-04-11T17:41:40.946Z,1.50
2023-04-11T17:44:44.913Z,0.80
2023-04-11T17:47:50.370Z,1.27
2023-04-11T17:50:56.873Z,1.38
2023-04-11T17:54:01.989Z,1.08
2023-04-11T17:57:10.873Z,0.90
2023-04-11T18:00:23.046Z,0.70
2023-04-11T18:03:34.727Z,1.15
2023-04-11T18:06:42.008Z,0.80
2023-04-11T18:09:48.476Z,0.88
2023-04-11T18:12:58.328Z,0.65
2023-04-11T18:16:03.616Z,1.02
2023-04-11T18:19:09.432Z,0.70
2023-04-11T18:22:13.240Z,0.95
2023-04-11T18:25:18.193Z,0.90
2023-04-11T18:28:21.774Z,0.98
2023-04-11T18:31:25.927Z,1.33
2023-04-11T18:34:33.307Z,0.68
2023-04-11T18:37:37.884Z,0.90
2023-04-11T18:40:43.151Z,1.15
2023-04-11T18:43:47.636Z,1.10
2023-04-11T18:46:54.257Z,1.30
2023-04-11T18:50:00.418Z,1.35
2023-04-11T18:53:05.755Z,1.20
2023-04-11T18:56:11.948Z,0.82
2023-04-11T18:59:18.617Z,1.10
2023-04-11T19:02:24.900Z,1.35
2023-04-11T19:05:30.763Z,1.20
2023-04-11T19:08:36.774Z,1.45
2023-04-11T19:11:41.378Z,1.20
2023-04-11T19:14:46.956Z,1.25
2023-04-11T19:17:54.337Z,1.60
2023-04-11T19:20:59.297Z,1.63
2023-04-11T19:24:03.860Z,1.33
2023-04-11T19:27:08.841Z,1.50
2023-04-11T19:30:14.181Z,1.60
2023-04-11T19:33:28.494Z,1.75
2023-04-11T19:36:33.546Z,1.67
2023-04-11T19:39:39.445Z,1.80
2023-04-11T19:42:43.412Z,1.85
2023-04-11T19:45:47.822Z,1.67
2023-04-11T19:48:51.645Z,1.27
2023-04-11T19:51:57.482Z,1.40
2023-04-11T19:55:01.441Z,1.48
2023-04-11T19:58:05.391Z,1.30
2023-04-11T20:01:09.832Z,1.48
2023-04-11T20:04:15.604Z,2.22
2023-04-11T20:07:26.211Z,2.22
2023-04-11T20:10:29.939Z,1.30
2023-04-11T20:13:33.802Z,1.33
2023-04-11T20:16:41.686Z,1.55
2023-04-11T20:19:47.618Z,1.55
2023-04-11T20:22:54.545Z,1.20
2023-04-11T20:26:03.016Z,1.30
2023-04-11T20:29:08.412Z,1.67
2023-04-11T20:32:15.196Z,1.75
2023-04-11T20:35:21.653Z,1.38
2023-04-11T20:38:28.236Z,1.95
2023-04-11T20:41:32.264Z,1.75
2023-04-11T20:44:36.056Z,1.90
2023-04-11T20:47:40.482Z,1.25
2023-04-11T20:50:47.162Z,1.48
2023-04-11T20:53:54.991Z,1.00
2023-04-11T20:56:58.770Z,1.90
2023-04-11T21:00:07.290Z,1.67
2023-04-11T21:03:11.568Z,1.73
2023-04-11T21:06:15.272Z,1.58
2023-04-11T21:09:34.588Z,2.20
2023-04-11T21:12:38.746Z,1.83
2023-04-11T21:15:42.210Z,2.40
2023-04-11T21:18:51.259Z,1.77
2023-04-11T21:21:54.812Z,2.08
2023-04-11T21:25:04.033Z,2.05
2023-04-11T21:28:09.458Z,1.70
2023-04-11T21:31:14.407Z,1.33
2023-04-11T21:34:19.047Z,1.88
2023-04-11T21:37:22.798Z,1.98
2023-04-11T21:40:29.952Z,1.33
2023-04-11T21:43:33.411Z,1.70
2023-04-11T21:46:41.904Z,1.73
2023-04-11T21:49:48.799Z,1.63
2023-04-11T21:52:54.027Z,2.00
2023-04-11T21:56:00.630Z,1.98
2023-04-11T21:59:04.166Z,1.38
2023-04-11T22:02:07.984Z,1.70
2023-04-11T22:05:17.554Z,1.52
2023-04-11T22:08:22.716Z,2.08
2023-04-11T22:11:28.049Z,1.45
2023-04-11T22:14:31.771Z,1.40
2023-04-11T22:17:41.971Z,1.83
2023-04-11T22:20:49.838Z,1.52
2023-04-11T22:23:57.201Z,1.67
2023-04-11T22:27:04.520Z,1.73
2023-04-11T22:30:16.564Z,1.58
2023-04-11T22:33:20.747Z,1.63
2023-04-11T22:36:24.654Z,2.00
2023-04-11T22:39:29.693Z,1.90
2023-04-11T22:42:34.834Z,1.83
2023-04-11T22:45:38.406Z,2.25
2023-04-11T22:48:45.405Z,1.88
2023-04-11T22:51:48.809Z,1.80
2023-04-11T22:54:52.148Z,1.63
2023-04-11T22:57:57.132Z,2.40
2023-04-11T23:01:04.826Z,1.88
2023-04-11T23:04:08.635Z,1.95
2023-04-11T23:07:12.498Z,2.28
2023-04-11T23:10:20.105Z,2.17
2023-04-11T23:13:25.042Z,2.40
2023-04-11T23:16:31.720Z,1.55
2023-04-11T23:19:38.565Z,2.13
2023-04-11T23:22:44.501Z,1.98
2023-04-11T23:25:49.471Z,1.80
2023-04-11T23:28:56.112Z,1.90
2023-04-11T23:31:59.518Z,1.80
2023-04-11T23:35:04.657Z,1.55
2023-04-11T23:38:10.407Z,1.95
2023-04-11T23:41:16.227Z,2.20
2023-04-11T23:44:21.634Z,1.60
2023-04-11T23:47:28.147Z,1.75
2023-04-11T23:50:32.882Z,1.80
2023-04-11T23:53:36.645Z,2.08
2023-04-11T23:56:40.047Z,1.55
2023-04-11T23:59:45.466Z,2.03
